Terminal Aerodrome Forecast
Issued by NWS

Home | Current Version | Previous Version | Text Only | Print | Product List | Glossary On
Versions: 1 2 3 4 5 6 7 8 9 10 11 12 13 14
000
FTUS42 KJAX 041741
TAFVQQ
TAF
KVQQ 041741Z 0418/0518 13011KT P6SM SCT040 BKN080
     FM042300 14006KT P6SM SCT035 BKN050
     FM050800 18006KT P6SM SCT007 SCT015 BKN100
      TEMPO 0508/0512 4SM BR SCT005 BKN010
     FM051500 19010KT P6SM VCSH SCT015 BKN025=

USA.gov is the U.S. government's official web portal to all federal, state and local government web resources and services.